Time;durP1;ratioP1;P1;durP2;ratioP2;P2;SDS_P1;SDS_P2;PMS_P1;PMS_P2;Temp;Humidity;BMP_temperature;BMP_pressure;BME280_temperature;BME280_humidity;BME280_pressure;Samples;Min_cycle;Max_cycle;Signal;HPM_P1;HPM_P2
2023/03/10 00:01:42;;;;;;;38.58;14.57;;;10.60;99.90;;;;;;4960457;28;25078;-79
2023/03/10 00:04:09;;;;;;;26.10;13.95;;;10.60;99.90;;;;;;4972350;28;25101;-79
2023/03/10 00:06:36;;;;;;;29.15;13.95;;;;;;;;;;4979412;28;25077;-78
2023/03/10 00:09:03;;;;;;;33.50;14.90;;;10.60;99.90;;;;;;4966584;28;25064;-77
2023/03/10 00:11:28;;;;;;;32.45;14.63;;;10.40;99.90;;;;;;4959168;28;25055;-79
2023/03/10 00:13:54;;;;;;;39.50;17.00;;;;;;;;;;4992716;28;25075;-79
2023/03/10 00:16:25;;;;;;;36.53;17.65;;;;;;;;;;4980181;28;25088;-79
2023/03/10 00:18:51;;;;;;;44.58;18.73;;;;;;;;;;4961372;28;25175;-78
2023/03/10 00:21:21;;;;;;;51.58;20.08;;;;;;;;;;4962019;28;25059;-79
2023/03/10 00:23:47;;;;;;;47.22;19.75;;;;;;;;;;4969393;28;25078;-80
2023/03/10 00:26:14;;;;;;;40.05;18.30;;;;;;;;;;4983644;28;25069;-80
2023/03/10 00:28:40;;;;;;;53.22;19.90;;;;;;;;;;4986330;28;25077;-79
2023/03/10 00:31:07;;;;;;;53.42;20.67;;;;;;;;;;4980934;28;25092;-77
2023/03/10 00:33:34;;;;;;;45.80;18.73;;;;;;;;;;4958151;28;25056;-79
2023/03/10 00:36:02;;;;;;;41.80;18.00;;;10.90;99.90;;;;;;4958979;28;25078;-77
2023/03/10 00:38:28;;;;;;;42.20;17.92;;;;;;;;;;4974451;28;25066;-78
2023/03/10 00:41:01;;;;;;;43.75;17.55;;;;;;;;;;4958379;28;25093;-77
2023/03/10 00:43:27;;;;;;;46.80;18.20;;;;;;;;;;4966117;28;25076;-77
2023/03/10 00:45:53;;;;;;;44.45;17.70;;;11.00;99.90;;;;;;4965179;28;25075;-78
2023/03/10 00:48:19;;;;;;;49.15;19.88;;;;;;;;;;4959577;28;25064;-78
2023/03/10 00:50:45;;;;;;;46.10;18.83;;;;;;;;;;4974750;28;25079;-78
2023/03/10 00:53:11;;;;;;;42.28;18.10;;;;;;;;;;4955268;28;25154;-79
2023/03/10 00:55:37;;;;;;;44.92;19.65;;;;;;;;;;4962698;28;25084;-77
2023/03/10 00:58:03;;;;;;;37.17;16.88;;;10.60;99.90;;;;;;4979524;28;25077;-77
2023/03/10 01:00:29;;;;;;;41.08;16.42;;;;;;;;;;4965710;28;25107;-78
2023/03/10 01:02:55;;;;;;;47.40;18.48;;;10.50;99.90;;;;;;4966147;28;25058;-77
2023/03/10 01:05:21;;;;;;;40.55;17.40;;;;;;;;;;4953819;28;25054;-82
2023/03/10 01:07:47;;;;;;;38.47;16.08;;;;;;;;;;4984751;28;25065;-77
2023/03/10 01:10:12;;;;;;;41.67;16.95;;;10.50;99.90;;;;;;4993241;28;25135;-78
2023/03/10 01:12:38;;;;;;;37.75;16.20;;;;;;;;;;4982479;28;25094;-78
2023/03/10 01:15:05;;;;;;;41.60;17.05;;;;;;;;;;4978773;28;25163;-78
2023/03/10 01:17:31;;;;;;;43.67;18.30;;;;;;;;;;4969879;28;25158;-78
2023/03/10 01:19:57;;;;;;;43.50;16.17;;;;;;;;;;4972635;28;25105;-77
2023/03/10 01:22:23;;;;;;;34.55;16.65;;;;;;;;;;4959311;28;25184;-78
2023/03/10 01:24:49;;;;;;;56.53;18.88;;;;;;;;;;4963053;28;25060;-77
2023/03/10 01:27:15;;;;;;;40.33;17.10;;;;;;;;;;4966734;28;25066;-76
2023/03/10 01:29:41;;;;;;;37.05;15.35;;;;;;;;;;4970478;28;25160;-79
2023/03/10 01:32:07;;;;;;;43.08;17.88;;;;;;;;;;4955680;28;25104;-77
2023/03/10 01:34:33;;;;;;;45.38;17.35;;;;;;;;;;4953119;28;25128;-74
2023/03/10 01:36:59;;;;;;;29.98;13.68;;;;;;;;;;4962151;28;25066;-77
2023/03/10 01:39:25;;;;;;;38.90;16.80;;;;;;;;;;4968011;28;25107;-77
2023/03/10 01:41:51;;;;;;;49.15;17.00;;;10.80;99.90;;;;;;4963040;28;25103;-77
2023/03/10 01:44:20;;;;;;;39.33;16.80;;;;;;;;;;4952319;28;25104;-74
2023/03/10 01:46:48;;;;;;;38.55;16.83;;;;;;;;;;4975789;28;25099;-76
2023/03/10 01:49:35;;;;;;;39.15;17.23;;;;;;;;;;4962202;28;25055;-79
2023/03/10 01:52:03;;;;;;;46.92;17.60;;;;;;;;;;4960222;28;25080;-76
2023/03/10 01:54:42;;;;;;;40.28;17.13;;;;;;;;;;4956583;28;25067;-79
2023/03/10 01:57:08;;;;;;;40.97;16.20;;;10.90;99.90;;;;;;4950013;28;25099;-77
2023/03/10 01:59:34;;;;;;;44.95;17.98;;;10.80;99.90;;;;;;4971664;28;25079;-77
2023/03/10 02:02:00;;;;;;;43.40;18.50;;;10.50;99.90;;;;;;4942364;28;25053;-75
2023/03/10 02:04:34;;;;;;;40.75;15.77;;;10.50;99.90;;;;;;4968577;28;25049;-77
2023/03/10 02:07:01;;;;;;;39.67;16.52;;;;;;;;;;4953462;28;25146;-75
2023/03/10 02:09:27;;;;;;;38.67;16.23;;;;;;;;;;4980983;28;25152;-76
2023/03/10 02:11:53;;;;;;;39.92;16.00;;;;;;;;;;4968196;28;25180;-76
2023/03/10 02:14:19;;;;;;;47.22;18.58;;;;;;;;;;4958483;28;25086;-76
2023/03/10 02:16:45;;;;;;;40.67;16.02;;;;;;;;;;4959974;28;25142;-77
2023/03/10 02:19:40;;;;;;;43.83;17.45;;;11.20;99.90;;;;;;4969749;28;25074;-78
2023/03/10 02:22:08;;;;;;;34.08;13.75;;;11.10;99.90;;;;;;4943682;28;25165;-77
2023/03/10 02:24:55;;;;;;;40.28;18.98;;;10.80;99.90;;;;;;4962037;28;25072;-76
2023/03/10 02:27:25;;;;;;;32.58;14.10;;;;;;;;;;4951741;28;25059;-75
2023/03/10 02:30:08;;;;;;;42.30;17.80;;;10.70;99.90;;;;;;4947397;28;25084;-75
2023/03/10 02:32:36;;;;;;;39.65;17.55;;;;;;;;;;4959332;28;25074;-75
2023/03/10 02:35:03;;;;;;;45.00;17.48;;;;;;;;;;4957779;28;25106;-75
2023/03/10 02:37:31;;;;;;;63.33;21.15;;;11.00;99.90;;;;;;4971832;28;25142;-76
2023/03/10 02:39:57;;;;;;;52.30;19.60;;;10.80;99.90;;;;;;4948570;28;25102;-79
2023/03/10 02:42:27;;;;;;;42.20;17.33;;;11.00;99.90;;;;;;4965435;28;25098;-79
2023/03/10 02:44:53;;;;;;;49.10;19.35;;;;;;;;;;4955315;28;25071;-80
2023/03/10 02:47:19;;;;;;;44.03;16.83;;;;;;;;;;4952362;28;25073;-80
2023/03/10 02:49:45;;;;;;;43.17;17.35;;;;;;;;;;4955864;28;25074;-78
2023/03/10 02:52:24;;;;;;;49.60;19.08;;;10.90;99.90;;;;;;4987246;28;25063;-80
2023/03/10 02:54:50;;;;;;;53.35;19.52;;;;;;;;;;4953667;28;25073;-80
2023/03/10 02:57:16;;;;;;;43.35;18.27;;;;;;;;;;4961077;28;25101;-79
2023/03/10 02:59:42;;;;;;;44.65;17.75;;;10.90;99.90;;;;;;4956576;28;25097;-79
2023/03/10 03:02:08;;;;;;;45.97;18.00;;;;;;;;;;4964490;28;25152;-79
2023/03/10 03:04:34;;;;;;;41.88;17.25;;;;;;;;;;4980236;28;25083;-78
2023/03/10 03:07:00;;;;;;;38.08;16.63;;;;;;;;;;4963336;28;25066;-79
2023/03/10 03:09:26;;;;;;;39.30;16.40;;;;;;;;;;4955306;28;25046;-79
2023/03/10 03:11:52;;;;;;;40.28;17.25;;;;;;;;;;4960743;28;25074;-77
2023/03/10 03:14:17;;;;;;;38.28;16.02;;;11.20;99.90;;;;;;4971304;28;25081;-79
2023/03/10 03:16:43;;;;;;;49.15;16.85;;;;;;;;;;4983423;28;25145;-79
2023/03/10 03:19:09;;;;;;;33.13;13.75;;;;;;;;;;4975636;28;25167;-79
2023/03/10 03:21:35;;;;;;;34.13;14.88;;;11.20;99.90;;;;;;4956866;28;25159;-78
2023/03/10 03:24:00;;;;;;;38.80;15.43;;;11.10;99.90;;;;;;4950943;28;25074;-77
2023/03/10 03:26:27;;;;;;;39.03;14.68;;;;;;;;;;4953267;28;25079;-77
2023/03/10 03:28:52;;;;;;;34.28;15.65;;;11.20;99.90;;;;;;4970595;28;25062;-75
2023/03/10 03:31:20;;;;;;;40.67;16.65;;;;;;;;;;4978482;28;24966;-76
2023/03/10 03:33:46;;;;;;;34.35;16.00;;;;;;;;;;4946043;28;25053;-77
2023/03/10 03:36:12;;;;;;;32.50;14.00;;;;;;;;;;4958913;28;25165;-77
2023/03/10 03:38:38;;;;;;;37.85;15.82;;;11.00;99.90;;;;;;4968497;28;25078;-77
2023/03/10 03:41:05;;;;;;;42.42;15.82;;;11.40;99.90;;;;;;4976503;28;25072;-76
2023/03/10 03:43:31;;;;;;;44.05;18.48;;;11.50;99.90;;;;;;4978383;28;25059;-80
2023/03/10 03:45:57;;;;;;;47.38;17.48;;;11.70;99.90;;;;;;4965297;28;25053;-77
2023/03/10 03:48:23;;;;;;;45.90;16.30;;;;;;;;;;4966613;28;25126;-77
2023/03/10 03:50:49;;;;;;;46.33;17.13;;;;;;;;;;4950779;28;25080;-77
2023/03/10 03:53:14;;;;;;;46.70;16.33;;;11.60;99.90;;;;;;4973815;28;25097;-79
2023/03/10 03:55:41;;;;;;;45.38;17.95;;;;;;;;;;4983950;28;25149;-78
2023/03/10 03:58:06;;;;;;;57.28;20.65;;;11.50;99.90;;;;;;4955104;28;25081;-77
2023/03/10 04:00:35;;;;;;;53.08;19.83;;;11.30;99.90;;;;;;4976507;28;25070;-78
2023/03/10 04:03:01;;;;;;;48.42;18.83;;;11.40;99.90;;;;;;4957648;28;25102;-79
2023/03/10 04:05:27;;;;;;;34.50;14.90;;;;;;;;;;4971614;28;25073;-79
2023/03/10 04:07:53;;;;;;;61.10;21.42;;;;;;;;;;4979913;28;25080;-77
2023/03/10 04:10:20;;;;;;;54.35;20.25;;;;;;;;;;4976598;28;25153;-77
2023/03/10 04:12:46;;;;;;;50.20;18.90;;;;;;;;;;4986330;28;25069;-78
2023/03/10 04:15:13;;;;;;;58.60;20.73;;;;;;;;;;4948343;28;25093;-78
2023/03/10 04:17:39;;;;;;;59.85;21.02;;;;;;;;;;4968776;28;25085;-78
2023/03/10 04:20:07;;;;;;;55.80;19.38;;;11.50;99.90;;;;;;4978195;28;25071;-76
2023/03/10 04:22:33;;;;;;;58.42;19.38;;;11.50;99.90;;;;;;4965278;28;25101;-78
2023/03/10 04:24:58;;;;;;;58.35;20.40;;;10.70;99.90;;;;;;4973796;28;25102;-77
2023/03/10 04:27:24;;;;;;;69.68;22.52;;;10.80;99.90;;;;;;4974781;28;25055;-77
2023/03/10 04:29:49;;;;;;;67.75;20.05;;;11.30;99.90;;;;;;4945322;28;25083;-76
2023/03/10 04:32:15;;;;;;;62.70;20.98;;;;;;;;;;4944573;28;25083;-78
2023/03/10 04:34:41;;;;;;;64.88;20.75;;;;;;;;;;4967067;28;25052;-79
2023/03/10 04:37:07;;;;;;;67.57;21.70;;;;;;;;;;4974830;28;25140;-78
2023/03/10 04:39:33;;;;;;;80.65;23.60;;;;;;;;;;4976694;28;25069;-76
2023/03/10 04:41:59;;;;;;;65.90;21.23;;;;;;;;;;4967562;28;25164;-79
2023/03/10 04:44:25;;;;;;;72.18;22.48;;;;;;;;;;4957426;28;25055;-78
2023/03/10 04:46:51;;;;;;;57.58;19.50;;;;;;;;;;4952457;28;25211;-78
2023/03/10 04:49:17;;;;;;;74.70;23.25;;;;;;;;;;4965077;28;25060;-77
2023/03/10 04:51:44;;;;;;;82.95;25.48;;;10.70;99.90;;;;;;4962756;28;25128;-77
2023/03/10 04:54:10;;;;;;;94.50;26.25;;;;;;;;;;4964153;28;25049;-77
2023/03/10 04:56:36;;;;;;;106.38;28.38;;;;;;;;;;4978072;28;25108;-77
2023/03/10 04:59:02;;;;;;;85.10;25.10;;;11.00;99.90;;;;;;4988235;28;25157;-76
2023/03/10 05:01:31;;;;;;;113.25;29.85;;;10.70;99.90;;;;;;4968686;28;25089;-77
2023/03/10 05:03:58;;;;;;;109.60;27.67;;;;;;;;;;4955950;28;25083;-75
2023/03/10 05:06:24;;;;;;;124.80;31.52;;;;;;;;;;4975860;28;25142;-77
2023/03/10 05:08:50;;;;;;;84.63;24.35;;;;;;;;;;4956374;28;25049;-76
2023/03/10 05:11:15;;;;;;;121.22;28.55;;;;;;;;;;4965039;28;25104;-77
2023/03/10 05:13:42;;;;;;;98.75;26.58;;;;;;;;;;4972377;28;25068;-76
2023/03/10 05:16:15;;;;;;;80.35;22.40;;;;;;;;;;4973690;28;25076;-76
2023/03/10 05:18:41;;;;;;;97.30;22.60;;;;;;;;;;4977067;28;25061;-74
2023/03/10 05:21:07;;;;;;;91.53;22.65;;;;;;;;;;4971502;28;25101;-78
2023/03/10 05:23:34;;;;;;;74.05;19.70;;;;;;;;;;4960835;28;25067;-77
2023/03/10 05:26:04;;;;;;;64.88;19.15;;;;;;;;;;4962583;28;25082;-79
2023/03/10 05:28:30;;;;;;;74.80;19.55;;;;;;;;;;4971387;28;25073;-81
2023/03/10 05:30:56;;;;;;;61.20;16.80;;;;;;;;;;4978471;28;25057;-83
2023/03/10 05:33:22;;;;;;;75.78;18.73;;;;;;;;;;4976075;28;25067;-81
2023/03/10 05:35:48;;;;;;;50.55;15.32;;;;;;;;;;4975735;28;25086;-82
2023/03/10 05:38:14;;;;;;;40.33;13.35;;;;;;;;;;4961173;28;25061;-80
2023/03/10 05:40:41;;;;;;;58.83;15.10;;;;;;;;;;4976373;28;25079;-81
2023/03/10 05:43:07;;;;;;;46.25;15.00;;;;;;;;;;4963528;28;25055;-79
2023/03/10 05:45:33;;;;;;;50.45;14.48;;;;;;;;;;4976075;28;25091;-79
2023/03/10 05:48:00;;;;;;;42.22;13.30;;;;;;;;;;4982344;28;25061;-80
2023/03/10 05:50:25;;;;;;;29.77;10.10;;;10.90;99.90;;;;;;4963000;28;25075;-76
2023/03/10 05:52:51;;;;;;;33.13;11.32;;;11.00;99.90;;;;;;4985108;28;25098;-77
2023/03/10 05:55:18;;;;;;;32.42;11.75;;;;;;;;;;4979423;28;25069;-77
2023/03/10 05:57:44;;;;;;;35.83;11.48;;;;;;;;;;4972201;28;25053;-79
2023/03/10 06:00:11;;;;;;;45.15;13.95;;;;;;;;;;4994898;28;25065;-77
2023/03/10 06:02:38;;;;;;;49.75;12.13;;;;;;;;;;4963786;28;25073;-79
2023/03/10 06:05:05;;;;;;;40.08;12.93;;;;;;;;;;4960829;28;25056;-80
2023/03/10 06:07:31;;;;;;;28.27;10.73;;;;;;;;;;4976677;28;25077;-80
2023/03/10 06:09:57;;;;;;;39.22;11.55;;;;;;;;;;4967056;28;25077;-81
2023/03/10 06:12:22;;;;;;;32.78;11.32;;;;;;;;;;4977626;28;25049;-78
2023/03/10 06:14:48;;;;;;;31.15;10.38;;;;;;;;;;4985507;28;25090;-81
2023/03/10 06:17:14;;;;;;;32.00;11.40;;;;;;;;;;4982341;28;25090;-82
2023/03/10 06:19:40;;;;;;;32.00;9.93;;;;;;;;;;4985329;28;25069;-80
2023/03/10 06:22:06;;;;;;;40.00;12.68;;;;;;;;;;4971846;28;25080;-81
2023/03/10 06:24:32;;;;;;;35.08;11.25;;;;;;;;;;4972579;28;25061;-79
2023/03/10 06:26:58;;;;;;;43.38;13.30;;;;;;;;;;4991924;28;25074;-79
2023/03/10 06:29:24;;;;;;;32.28;11.15;;;11.00;99.90;;;;;;4966499;28;25070;-81
2023/03/10 06:31:49;;;;;;;28.23;9.70;;;11.10;99.90;;;;;;4988267;28;25058;-80
2023/03/10 06:34:16;;;;;;;36.63;11.85;;;;;;;;;;4971567;28;25063;-79
2023/03/10 06:36:42;;;;;;;31.02;10.63;;;;;;;;;;4978806;28;25066;-81
2023/03/10 06:39:08;;;;;;;29.33;10.88;;;;;;;;;;4974673;28;25070;-80
2023/03/10 06:41:35;;;;;;;29.48;10.05;;;;;;;;;;4972857;28;25062;-80
2023/03/10 06:44:01;;;;;;;39.40;10.82;;;;;;;;;;4972690;28;25091;-80
2023/03/10 06:46:27;;;;;;;28.05;11.02;;;;;;;;;;4991850;28;25105;-80
2023/03/10 06:48:54;;;;;;;25.45;9.75;;;;;;;;;;4974385;28;25096;-80
2023/03/10 06:51:20;;;;;;;27.75;11.35;;;;;;;;;;4975680;28;25083;-81
2023/03/10 06:53:47;;;;;;;26.88;10.38;;;;;;;;;;4984398;28;25085;-77
2023/03/10 06:56:15;;;;;;;26.85;9.48;;;;;;;;;;4995115;28;25053;-80
2023/03/10 06:58:42;;;;;;;27.00;9.55;;;;;;;;;;5005094;28;25069;-79
2023/03/10 07:01:08;;;;;;;27.27;10.07;;;;;;;;;;4985751;28;25059;-81
2023/03/10 07:03:35;;;;;;;27.40;9.38;;;11.20;99.90;;;;;;4968061;28;25076;-78
2023/03/10 07:06:01;;;;;;;16.83;7.85;;;;;;;;;;4992361;28;25081;-78
2023/03/10 07:08:27;;;;;;;31.55;10.68;;;;;;;;;;4975109;28;25083;-79
2023/03/10 07:10:53;;;;;;;27.42;10.48;;;;;;;;;;4972407;28;25082;-80
2023/03/10 07:13:20;;;;;;;31.13;10.00;;;;;;;;;;4972559;28;25084;-78
2023/03/10 07:15:47;;;;;;;25.92;9.45;;;;;;;;;;4981066;28;25066;-77
2023/03/10 07:18:13;;;;;;;25.30;10.63;;;;;;;;;;4980315;28;25058;-77
2023/03/10 07:20:40;;;;;;;35.33;10.45;;;;;;;;;;4972582;28;25060;-77
2023/03/10 07:23:06;;;;;;;34.35;11.40;;;;;;;;;;4965411;28;25104;-76
2023/03/10 07:25:34;;;;;;;31.63;11.27;;;;;;;;;;4959848;28;25086;-77
2023/03/10 07:28:00;;;;;;;30.80;10.93;;;;;;;;;;4957463;28;25078;-76
2023/03/10 07:30:26;;;;;;;33.78;11.77;;;;;;;;;;4963544;28;25075;-77
2023/03/10 07:32:51;;;;;;;39.60;11.75;;;;;;;;;;4965120;28;25071;-77
2023/03/10 07:35:18;;;;;;;38.08;11.05;;;;;;;;;;4965818;28;25070;-76
2023/03/10 07:37:44;;;;;;;44.65;13.50;;;;;;;;;;4963690;28;25060;-78
2023/03/10 07:40:10;;;;;;;37.13;13.25;;;;;;;;;;4953462;28;25094;-77
2023/03/10 07:42:36;;;;;;;39.58;13.30;;;;;;;;;;4942435;28;25057;-76
2023/03/10 07:45:02;;;;;;;47.90;14.52;;;;;;;;;;4974295;28;25066;-76
2023/03/10 07:47:29;;;;;;;51.05;13.98;;;;;;;;;;4959456;28;25101;-79
2023/03/10 07:49:54;;;;;;;51.40;14.82;;;;;;;;;;4976336;28;25061;-80
2023/03/10 07:52:21;;;;;;;47.55;14.43;;;;;;;;;;4985694;28;25069;-80
2023/03/10 07:54:47;;;;;;;44.95;15.43;;;;;;;;;;4938327;28;25065;-83
2023/03/10 07:57:13;;;;;;;48.63;14.70;;;;;;;;;;4957022;28;25099;-80
2023/03/10 07:59:40;;;;;;;49.72;15.63;;;;;;;;;;4970871;28;25090;-81
2023/03/10 08:02:06;;;;;;;52.00;15.13;;;;;;;;;;4968195;28;25079;-81
2023/03/10 08:04:32;;;;;;;45.30;14.00;;;;;;;;;;4977789;28;25117;-80
2023/03/10 08:07:01;;;;;;;39.00;12.57;;;11.70;99.90;;;;;;4964186;28;25097;-79
2023/03/10 08:09:27;;;;;;;53.00;15.65;;;;;;;;;;4969602;28;25102;-80
2023/03/10 08:11:53;;;;;;;46.22;14.57;;;;;;;;;;4950415;28;25095;-79
2023/03/10 08:14:18;;;;;;;41.53;14.23;;;11.50;99.90;;;;;;4955846;28;25077;-79
2023/03/10 08:16:44;;;;;;;48.13;13.90;;;;;;;;;;4964054;28;25069;-79
2023/03/10 08:19:10;;;;;;;47.65;14.70;;;;;;;;;;4967506;28;25056;-78
2023/03/10 08:21:36;;;;;;;40.10;14.07;;;;;;;;;;4969144;28;25084;-80
2023/03/10 08:24:02;;;;;;;48.72;14.55;;;;;;;;;;4967745;28;25070;-81
2023/03/10 08:26:28;;;;;;;38.67;14.00;;;;;;;;;;4974800;28;25106;-80
2023/03/10 08:28:54;;;;;;;40.53;12.88;;;;;;;;;;4966512;28;25107;-80
2023/03/10 08:31:20;;;;;;;46.25;14.15;;;;;;;;;;4956886;28;25133;-79
2023/03/10 08:33:47;;;;;;;37.25;12.15;;;;;;;;;;4949102;28;25056;-78
2023/03/10 08:36:20;;;;;;;53.45;15.43;;;;;;;;;;4975400;28;25100;-80
2023/03/10 08:38:46;;;;;;;45.60;14.82;;;;;;;;;;4964112;28;25098;-79
2023/03/10 08:41:16;;;;;;;51.85;15.95;;;;;;;;;;4975506;28;25092;-80
2023/03/10 08:43:42;;;;;;;58.17;15.50;;;;;;;;;;4958342;28;25067;-77
2023/03/10 08:46:08;;;;;;;47.45;14.13;;;;;;;;;;4964169;28;25061;-79
2023/03/10 08:48:35;;;;;;;52.92;16.42;;;;;;;;;;4973766;28;25067;-79
2023/03/10 08:51:01;;;;;;;47.33;14.60;;;;;;;;;;4953518;28;25103;-78
2023/03/10 08:53:26;;;;;;;49.45;16.00;;;;;;;;;;4962300;28;25105;-79
2023/03/10 08:55:53;;;;;;;66.18;18.98;;;;;;;;;;4961078;28;25061;-78
2023/03/10 08:58:19;;;;;;;62.25;19.02;;;;;;;;;;4963439;28;25063;-80
2023/03/10 09:00:45;;;;;;;54.47;17.05;;;;;;;;;;4958625;28;25077;-79
2023/03/10 09:03:11;;;;;;;45.58;15.50;;;;;;;;;;4968593;28;25084;-79
2023/03/10 09:05:37;;;;;;;50.67;15.27;;;;;;;;;;4965005;28;25094;-80
2023/03/10 09:08:03;;;;;;;34.80;12.25;;;;;;;;;;4960746;28;25128;-81
2023/03/10 09:10:29;;;;;;;31.17;13.55;;;;;;;;;;4952936;28;25089;-80
2023/03/10 09:12:55;;;;;;;37.88;12.75;;;;;;;;;;4972843;28;25141;-78
2023/03/10 09:15:22;;;;;;;39.15;11.82;;;;;;;;;;4953703;28;25062;-81
2023/03/10 09:17:48;;;;;;;35.65;11.75;;;;;;;;;;4957067;28;25136;-78
2023/03/10 09:20:14;;;;;;;42.03;12.38;;;;;;;;;;4964469;28;25069;-77
2023/03/10 09:22:42;;;;;;;28.23;12.05;;;;;;;;;;4986322;28;25148;-80
2023/03/10 09:25:10;;;;;;;45.75;15.25;;;;;;;;;;4972715;28;25071;-81
2023/03/10 09:27:36;;;;;;;47.47;17.63;;;;;;;;;;4969663;28;25116;-80
2023/03/10 09:30:02;;;;;;;61.45;18.60;;;;;;;;;;4963255;28;25208;-80
2023/03/10 09:32:28;;;;;;;62.88;20.13;;;;;;;;;;4960994;28;25072;-80
2023/03/10 09:34:53;;;;;;;57.15;19.30;;;;;;;;;;4951437;28;25073;-81
2023/03/10 09:37:19;;;;;;;61.58;18.80;;;;;;;;;;4951332;28;25060;-80
2023/03/10 09:39:46;;;;;;;57.35;16.38;;;;;;;;;;4976666;28;25068;-79
2023/03/10 09:42:23;;;;;;;61.53;17.88;;;;;;;;;;4947487;28;25045;-79
2023/03/10 09:45:01;;;;;;;63.13;19.75;;;;;;;;;;4976231;28;25071;-80
2023/03/10 09:47:42;;;;;;;54.40;14.98;;;;;;;;;;4957868;28;25076;-84
2023/03/10 09:50:27;;;;;;;49.83;14.27;;;;;;;;;;4973669;28;25078;-80
2023/03/10 09:52:53;;;;;;;36.47;12.90;;;;;;;;;;4976158;28;25090;-80
2023/03/10 09:55:21;;;;;;;40.15;14.02;;;;;;;;;;4952151;28;25062;-81
2023/03/10 09:57:49;;;;;;;33.33;13.02;;;;;;;;;;4955415;28;25066;-79
2023/03/10 10:00:19;;;;;;;34.97;11.52;;;;;;;;;;4968676;28;25111;-80
2023/03/10 10:02:45;;;;;;;34.70;11.32;;;;;;;;;;4990314;28;25058;-80
2023/03/10 10:05:25;;;;;;;28.55;9.90;;;;;;;;;;4971451;28;25077;-79
2023/03/10 10:07:54;;;;;;;31.67;10.48;;;;;;;;;;4978456;28;25053;-80
2023/03/10 10:10:25;;;;;;;29.38;11.43;;;;;;;;;;4978756;28;25088;-80
2023/03/10 10:12:53;;;;;;;27.23;11.05;;;;;;;;;;4973375;28;25069;-80
2023/03/10 10:15:21;;;;;;;28.20;9.82;;;;;;;;;;4979101;28;25057;-81
2023/03/10 10:18:00;;;;;;;27.38;9.90;;;;;;;;;;4968124;28;25064;-83
2023/03/10 10:20:35;;;;;;;28.77;9.98;;;;;;;;;;4978955;28;25073;-82
2023/03/10 10:23:01;;;;;;;26.80;7.60;;;;;;;;;;4983668;28;25055;-83
2023/03/10 10:25:30;;;;;;;20.77;8.18;;;;;;;;;;4973566;28;25086;-80
2023/03/10 10:27:58;;;;;;;22.17;7.88;;;;;;;;;;4987283;28;25075;-81
2023/03/10 10:30:26;;;;;;;25.23;7.25;;;;;;;;;;4972474;28;25065;-80
2023/03/10 10:33:11;;;;;;;22.38;7.07;;;;;;;;;;4992710;28;25143;-80
2023/03/10 10:35:41;;;;;;;18.40;6.78;;;;;;;;;;4976980;28;25067;-81
2023/03/10 10:38:07;;;;;;;17.95;6.28;;;;;;;;;;4995034;28;25047;-78
2023/03/10 10:40:34;;;;;;;17.25;6.65;;;;;;;;;;4982853;28;25169;-80
2023/03/10 10:43:04;;;;;;;13.85;4.90;;;;;;;;;;4991551;28;25095;-78
2023/03/10 10:45:35;;;;;;;12.38;4.85;;;;;;;;;;4975650;28;25060;-78
2023/03/10 10:48:02;;;;;;;17.50;5.55;;;;;;;;;;4974832;28;25056;-75
2023/03/10 10:50:32;;;;;;;10.77;5.25;;;;;;;;;;4967617;28;25109;-76
2023/03/10 10:53:14;;;;;;;11.88;4.97;;;;;;;;;;4977099;28;25065;-77
2023/03/10 10:55:41;;;;;;;11.20;4.45;;;;;;;;;;4968807;28;25071;-77
2023/03/10 10:58:24;;;;;;;15.02;5.10;;;;;;;;;;4988147;28;25075;-80
2023/03/10 11:00:55;;;;;;;14.45;5.63;;;;;;;;;;4977659;28;25103;-77
2023/03/10 11:03:25;;;;;;;10.00;4.20;;;;;;;;;;4985826;28;25056;-78
2023/03/10 11:05:51;;;;;;;6.03;3.55;;;;;;;;;;4976084;28;25068;-77
2023/03/10 11:08:26;;;;;;;7.68;3.70;;;;;;;;;;4985400;28;25080;-77
2023/03/10 11:11:06;;;;;;;7.22;3.05;;;10.90;99.90;;;;;;4979221;28;25067;-78
2023/03/10 11:13:45;;;;;;;6.82;3.30;;;10.80;99.90;;;;;;4969036;28;25137;-79
2023/03/10 11:16:45;;;;;;;8.65;4.05;;;10.40;99.90;;;;;;4964865;28;25095;-77
2023/03/10 11:19:23;;;;;;;8.48;3.65;;;10.60;99.90;;;;;;4964908;28;25153;-79
2023/03/10 11:21:53;;;;;;;7.75;3.90;;;10.70;99.90;;;;;;4967406;28;25103;-80
2023/03/10 11:24:26;;;;;;;8.30;3.53;;;;;;;;;;4970241;28;25097;-79
2023/03/10 11:26:57;;;;;;;7.63;3.25;;;;;;;;;;4959911;28;25084;-76
2023/03/10 11:29:29;;;;;;;5.60;2.88;;;;;;;;;;4962193;28;25071;-78
2023/03/10 11:32:07;;;;;;;7.10;2.92;;;;;;;;;;4969968;28;25056;-79
2023/03/10 11:34:40;;;;;;;8.68;3.67;;;;;;;;;;4968541;28;25063;-79
2023/03/10 11:37:28;;;;;;;9.85;3.55;;;;;;;;;;4968572;28;25114;-82
2023/03/10 11:40:06;;;;;;;3.63;2.50;;;;;;;;;;4969015;28;25065;-81
2023/03/10 11:42:38;;;;;;;4.10;2.35;;;;;;;;;;4965640;28;25105;-77
2023/03/10 11:45:12;;;;;;;3.53;2.42;;;;;;;;;;4969150;28;25077;-79
2023/03/10 11:47:41;;;;;;;4.70;2.72;;;10.20;99.90;;;;;;4958209;28;25626;-78
2023/03/10 11:50:25;;;;;;;4.18;2.60;;;10.10;99.90;;;;;;4971004;28;25067;-80
2023/03/10 11:52:58;;;;;;;5.05;2.00;;;9.80;99.90;;;;;;4969935;28;25153;-80
2023/03/10 11:55:24;;;;;;;6.95;1.95;;;9.70;99.90;;;;;;4960147;28;25054;-77
2023/03/10 11:57:55;;;;;;;5.45;2.25;;;10.00;99.90;;;;;;4958423;28;25111;-76
2023/03/10 12:00:28;;;;;;;3.88;2.40;;;;;;;;;;4970511;28;25053;-78
2023/03/10 12:02:56;;;;;;;5.55;2.15;;;9.60;99.90;;;;;;4964004;28;25079;-82
2023/03/10 12:05:24;;;;;;;4.65;2.42;;;;;;;;;;4962960;28;25075;-79
2023/03/10 12:07:58;;;;;;;3.17;1.88;;;9.70;99.90;;;;;;4977647;28;25056;-78
2023/03/10 12:10:24;;;;;;;2.88;2.00;;;;;;;;;;4961111;28;25048;-81
2023/03/10 12:12:52;;;;;;;4.90;2.20;;;;;;;;;;4955565;28;25104;-80
2023/03/10 12:15:18;;;;;;;2.08;1.80;;;;;;;;;;4972995;28;25118;-79
2023/03/10 12:17:44;;;;;;;4.78;2.13;;;;;;;;;;4973382;28;25138;-77
2023/03/10 12:20:14;;;;;;;3.38;1.98;;;;;;;;;;4964067;28;25056;-75
2023/03/10 12:22:49;;;;;;;2.97;1.90;;;;;;;;;;4962943;28;25059;-78
2023/03/10 12:25:31;;;;;;;4.03;2.50;;;;;;;;;;4958037;28;25101;-76
2023/03/10 12:28:16;;;;;;;3.83;2.35;;;;;;;;;;4984039;28;25074;-78
2023/03/10 12:30:51;;;;;;;4.78;2.08;;;;;;;;;;4944853;28;25107;-79
2023/03/10 12:33:41;;;;;;;6.32;2.95;;;;;;;;;;4968960;28;25065;-79
2023/03/10 12:36:19;;;;;;;3.97;2.83;;;;;;;;;;4972239;28;25115;-78
2023/03/10 12:38:47;;;;;;;5.15;3.05;;;;;;;;;;4952979;28;25066;-78
2023/03/10 12:41:25;;;;;;;7.95;3.33;;;;;;;;;;4962475;28;25154;-78
2023/03/10 12:43:57;;;;;;;8.68;3.67;;;;;;;;;;4952145;28;25075;-75
2023/03/10 12:46:29;;;;;;;6.93;2.78;;;;;;;;;;4954701;28;25074;-78
2023/03/10 12:49:21;;;;;;;7.70;3.83;;;;;;;;;;4985726;28;25057;-80
2023/03/10 12:51:51;;;;;;;5.95;3.70;;;;;;;;;;4971481;28;25106;-78
2023/03/10 12:54:20;;;;;;;8.73;3.30;;;;;;;;;;5001220;28;25066;-80
2023/03/10 12:57:00;;;;;;;7.85;3.72;;;;;;;;;;4984774;28;25089;-81
2023/03/10 12:59:38;;;;;;;7.53;3.13;;;;;;;;;;4978597;28;25117;-80
2023/03/10 13:02:11;;;;;;;6.18;2.58;;;;;;;;;;4968106;28;25073;-79
2023/03/10 13:04:37;;;;;;;8.50;3.10;;;;;;;;;;4976704;28;25081;-81
2023/03/10 13:07:03;;;;;;;6.63;3.30;;;;;;;;;;4943874;28;25102;-79
2023/03/10 13:09:37;;;;;;;4.95;2.92;;;;;;;;;;4940077;28;25068;-75
2023/03/10 13:12:24;;;;;;;6.65;3.40;;;;;;;;;;4964767;28;25145;-79
2023/03/10 13:15:00;;;;;;;7.47;3.15;;;;;;;;;;4949961;28;25070;-76
2023/03/10 13:17:31;;;;;;;9.65;3.42;;;9.10;99.90;;;;;;4966762;28;25082;-75
2023/03/10 13:19:59;;;;;;;10.75;4.35;;;;;;;;;;4983751;28;25048;-75
2023/03/10 13:22:25;;;;;;;10.18;4.40;;;;;;;;;;4958716;28;25087;-76
2023/03/10 13:25:01;;;;;;;11.82;4.07;;;;;;;;;;4953598;28;25094;-75
2023/03/10 13:27:29;;;;;;;10.90;4.70;;;;;;;;;;4965630;28;25108;-76
2023/03/10 13:29:58;;;;;;;8.90;3.72;;;;;;;;;;4953655;28;25061;-77
2023/03/10 13:32:24;;;;;;;10.73;3.60;;;;;;;;;;4971122;28;25080;-77
2023/03/10 13:34:50;;;;;;;8.07;3.78;;;;;;;;;;4939757;28;25058;-72
2023/03/10 13:37:16;;;;;;;9.32;4.40;;;;;;;;;;4948049;28;25061;-77
2023/03/10 13:39:42;;;;;;;12.15;5.28;;;8.50;99.90;;;;;;4953794;28;25069;-74
2023/03/10 13:42:24;;;;;;;11.45;5.13;;;8.20;99.90;;;;;;4966145;28;25064;-77
2023/03/10 13:44:51;;;;;;;8.95;4.97;;;8.10;99.90;;;;;;4954547;28;25087;-76
2023/03/10 13:47:22;;;;;;;8.43;4.72;;;7.70;99.90;;;;;;4949066;28;25135;-76
2023/03/10 13:49:54;;;;;;;17.65;5.93;;;;;;;;;;4943264;28;25096;-76
2023/03/10 13:52:23;;;;;;;12.10;5.10;;;7.30;99.90;;;;;;4975791;28;25092;-79
2023/03/10 13:54:49;;;;;;;17.95;6.97;;;7.30;99.90;;;;;;4949145;28;25094;-74
2023/03/10 13:57:34;;;;;;;12.18;5.25;;;7.10;99.90;;;;;;4953778;28;25080;-76
2023/03/10 14:00:01;;;;;;;13.98;6.18;;;7.10;99.90;;;;;;4961869;28;25071;-78
2023/03/10 14:02:29;;;;;;;15.50;7.18;;;;;;;;;;4959510;28;25127;-78
2023/03/10 14:04:56;;;;;;;19.40;7.85;;;6.90;99.90;;;;;;4967041;28;25079;-79